sensor_id;sensor_type;location;lat;lon;timestamp;pressure;altitude;pressure_sealevel;temperature;humidity
4972;BME280;2501;51.214;6.768;2023-03-04T00:00:35;102245.72;;;4.48;76.68
4972;BME280;2501;51.214;6.768;2023-03-04T00:03:07;102255.94;;;4.45;76.13
4972;BME280;2501;51.214;6.768;2023-03-04T00:05:36;102251.47;;;4.42;75.79
4972;BME280;2501;51.214;6.768;2023-03-04T00:08:04;102253.00;;;4.39;75.56
4972;BME280;2501;51.214;6.768;2023-03-04T00:10:33;102257.66;;;4.44;75.39
4972;BME280;2501;51.214;6.768;2023-03-04T00:13:01;102248.41;;;4.49;74.72
4972;BME280;2501;51.214;6.768;2023-03-04T00:15:29;102260.56;;;4.50;74.72
4972;BME280;2501;51.214;6.768;2023-03-04T00:18:00;102255.38;;;4.50;74.83
4972;BME280;2501;51.214;6.768;2023-03-04T00:20:29;102251.25;;;4.54;74.55
4972;BME280;2501;51.214;6.768;2023-03-04T00:22:57;102254.34;;;4.47;74.32
4972;BME280;2501;51.214;6.768;2023-03-04T00:25:26;102260.34;;;4.46;74.53
4972;BME280;2501;51.214;6.768;2023-03-04T00:27:54;102249.63;;;4.56;74.63
4972;BME280;2501;51.214;6.768;2023-03-04T00:30:22;102249.78;;;4.59;74.51
4972;BME280;2501;51.214;6.768;2023-03-04T00:32:51;102247.91;;;4.57;74.65
4972;BME280;2501;51.214;6.768;2023-03-04T00:35:22;102242.16;;;4.46;74.23
4972;BME280;2501;51.214;6.768;2023-03-04T00:37:51;102236.97;;;4.46;74.25
4972;BME280;2501;51.214;6.768;2023-03-04T00:40:19;102237.94;;;4.48;74.45
4972;BME280;2501;51.214;6.768;2023-03-04T00:42:48;102231.41;;;4.40;74.95
4972;BME280;2501;51.214;6.768;2023-03-04T00:45:16;102237.69;;;4.43;74.86
4972;BME280;2501;51.214;6.768;2023-03-04T00:47:45;102236.69;;;4.25;75.27
4972;BME280;2501;51.214;6.768;2023-03-04T00:50:13;102234.78;;;4.23;75.75
4972;BME280;2501;51.214;6.768;2023-03-04T00:52:44;102235.72;;;4.55;75.58
4972;BME280;2501;51.214;6.768;2023-03-04T00:55:12;102235.66;;;4.54;74.46
4972;BME280;2501;51.214;6.768;2023-03-04T00:57:41;102227.84;;;4.54;74.63
4972;BME280;2501;51.214;6.768;2023-03-04T01:00:12;102226.81;;;4.67;74.24
4972;BME280;2501;51.214;6.768;2023-03-04T01:02:43;102228.25;;;4.29;75.04
4972;BME280;2501;51.214;6.768;2023-03-04T01:05:12;102229.69;;;4.24;76.10
4972;BME280;2501;51.214;6.768;2023-03-04T01:07:40;102229.78;;;4.26;76.41
4972;BME280;2501;51.214;6.768;2023-03-04T01:10:13;102227.38;;;4.61;75.46
4972;BME280;2501;51.214;6.768;2023-03-04T01:12:41;102220.94;;;4.38;75.31
4972;BME280;2501;51.214;6.768;2023-03-04T01:15:11;102224.13;;;4.33;75.54
4972;BME280;2501;51.214;6.768;2023-03-04T01:17:40;102218.59;;;4.59;75.83
4972;BME280;2501;51.214;6.768;2023-03-04T01:20:11;102219.56;;;4.45;75.82
4972;BME280;2501;51.214;6.768;2023-03-04T01:22:40;102213.41;;;4.59;75.34
4972;BME280;2501;51.214;6.768;2023-03-04T01:25:11;102213.75;;;4.65;75.04
4972;BME280;2501;51.214;6.768;2023-03-04T01:27:40;102222.16;;;4.29;75.93
4972;BME280;2501;51.214;6.768;2023-03-04T01:30:10;102213.38;;;4.27;76.00
4972;BME280;2501;51.214;6.768;2023-03-04T01:32:38;102207.97;;;4.54;75.63
4972;BME280;2501;51.214;6.768;2023-03-04T01:35:08;102213.47;;;4.28;75.97
4972;BME280;2501;51.214;6.768;2023-03-04T01:37:36;102207.94;;;4.38;75.92
4972;BME280;2501;51.214;6.768;2023-03-04T01:40:06;102206.81;;;4.33;76.51
4972;BME280;2501;51.214;6.768;2023-03-04T01:42:37;102207.41;;;4.76;75.47
4972;BME280;2501;51.214;6.768;2023-03-04T01:45:10;102208.31;;;4.61;75.20
4972;BME280;2501;51.214;6.768;2023-03-04T01:47:40;102200.81;;;4.50;75.37
4972;BME280;2501;51.214;6.768;2023-03-04T01:50:21;102202.75;;;4.22;76.81
4972;BME280;2501;51.214;6.768;2023-03-04T01:52:51;102200.50;;;4.44;77.12
4972;BME280;2501;51.214;6.768;2023-03-04T01:55:21;102199.78;;;4.16;77.76
4972;BME280;2501;51.214;6.768;2023-03-04T01:57:52;102195.03;;;4.40;77.34
4972;BME280;2501;51.214;6.768;2023-03-04T02:00:28;102190.56;;;4.37;77.13
4972;BME280;2501;51.214;6.768;2023-03-04T02:02:58;102188.88;;;4.38;77.68
4972;BME280;2501;51.214;6.768;2023-03-04T02:05:28;102189.94;;;4.41;77.65
4972;BME280;2501;51.214;6.768;2023-03-04T02:07:58;102188.06;;;4.39;77.69
4972;BME280;2501;51.214;6.768;2023-03-04T02:10:28;102189.84;;;4.40;77.65
4972;BME280;2501;51.214;6.768;2023-03-04T02:13:00;102192.09;;;4.34;78.09
4972;BME280;2501;51.214;6.768;2023-03-04T02:15:29;102187.09;;;4.37;78.09
4972;BME280;2501;51.214;6.768;2023-03-04T02:17:57;102183.75;;;4.39;78.19
4972;BME280;2501;51.214;6.768;2023-03-04T02:20:37;102185.69;;;4.11;78.99
4972;BME280;2501;51.214;6.768;2023-03-04T02:23:15;102171.31;;;4.17;79.03
4972;BME280;2501;51.214;6.768;2023-03-04T02:25:49;102179.09;;;4.17;79.34
4972;BME280;2501;51.214;6.768;2023-03-04T02:28:21;102174.97;;;4.21;79.57
4972;BME280;2501;51.214;6.768;2023-03-04T02:30:49;102171.81;;;4.10;79.32
4972;BME280;2501;51.214;6.768;2023-03-04T02:33:18;102166.16;;;4.50;78.62
4972;BME280;2501;51.214;6.768;2023-03-04T02:35:47;102177.41;;;4.50;77.86
4972;BME280;2501;51.214;6.768;2023-03-04T02:38:15;102170.94;;;4.42;78.17
4972;BME280;2501;51.214;6.768;2023-03-04T02:40:46;102179.47;;;4.40;78.70
4972;BME280;2501;51.214;6.768;2023-03-04T02:43:15;102173.88;;;4.32;79.21
4972;BME280;2501;51.214;6.768;2023-03-04T02:45:47;102169.16;;;4.25;79.65
4972;BME280;2501;51.214;6.768;2023-03-04T02:48:18;102171.19;;;4.31;79.80
4972;BME280;2501;51.214;6.768;2023-03-04T02:50:50;102156.81;;;4.37;79.90
4972;BME280;2501;51.214;6.768;2023-03-04T02:53:20;102164.53;;;4.36;79.90
4972;BME280;2501;51.214;6.768;2023-03-04T02:55:50;102161.84;;;4.34;80.15
4972;BME280;2501;51.214;6.768;2023-03-04T02:58:18;102154.03;;;4.34;80.22
4972;BME280;2501;51.214;6.768;2023-03-04T03:00:49;102158.22;;;4.31;79.62
4972;BME280;2501;51.214;6.768;2023-03-04T03:03:18;102151.53;;;4.36;79.56
4972;BME280;2501;51.214;6.768;2023-03-04T03:05:46;102153.00;;;4.31;79.60
4972;BME280;2501;51.214;6.768;2023-03-04T03:08:15;102154.94;;;4.35;79.72
4972;BME280;2501;51.214;6.768;2023-03-04T03:10:43;102148.84;;;4.34;79.43
4972;BME280;2501;51.214;6.768;2023-03-04T03:13:12;102151.41;;;4.33;79.44
4972;BME280;2501;51.214;6.768;2023-03-04T03:15:40;102151.41;;;4.33;79.91
4972;BME280;2501;51.214;6.768;2023-03-04T03:18:11;102155.63;;;4.31;79.79
4972;BME280;2501;51.214;6.768;2023-03-04T03:20:40;102140.41;;;4.38;79.78
4972;BME280;2501;51.214;6.768;2023-03-04T03:23:09;102141.81;;;4.32;79.39
4972;BME280;2501;51.214;6.768;2023-03-04T03:25:37;102139.59;;;4.23;79.73
4972;BME280;2501;51.214;6.768;2023-03-04T03:28:05;102145.22;;;4.31;79.94
4972;BME280;2501;51.214;6.768;2023-03-04T03:30:34;102146.25;;;4.34;79.96
4972;BME280;2501;51.214;6.768;2023-03-04T03:33:02;102145.22;;;4.31;79.79
4972;BME280;2501;51.214;6.768;2023-03-04T03:35:33;102145.78;;;4.25;79.75
4972;BME280;2501;51.214;6.768;2023-03-04T03:38:02;102144.25;;;4.29;79.41
4972;BME280;2501;51.214;6.768;2023-03-04T03:40:30;102143.75;;;4.36;79.55
4972;BME280;2501;51.214;6.768;2023-03-04T03:42:59;102144.41;;;4.32;79.43
4972;BME280;2501;51.214;6.768;2023-03-04T03:45:27;102142.75;;;4.34;79.69
4972;BME280;2501;51.214;6.768;2023-03-04T03:47:56;102135.81;;;4.33;80.26
4972;BME280;2501;51.214;6.768;2023-03-04T03:50:24;102130.44;;;4.30;80.47
4972;BME280;2501;51.214;6.768;2023-03-04T03:52:56;102129.72;;;4.32;80.06
4972;BME280;2501;51.214;6.768;2023-03-04T03:55:24;102129.84;;;4.35;79.61
4972;BME280;2501;51.214;6.768;2023-03-04T03:57:53;102131.47;;;4.33;78.84
4972;BME280;2501;51.214;6.768;2023-03-04T04:00:21;102132.63;;;4.38;78.70
4972;BME280;2501;51.214;6.768;2023-03-04T04:02:50;102133.22;;;4.33;78.52
4972;BME280;2501;51.214;6.768;2023-03-04T04:05:19;102131.81;;;4.39;78.25
4972;BME280;2501;51.214;6.768;2023-03-04T04:07:47;102131.16;;;4.43;77.66
4972;BME280;2501;51.214;6.768;2023-03-04T04:10:18;102132.16;;;4.45;77.36
4972;BME280;2501;51.214;6.768;2023-03-04T04:12:47;102130.91;;;4.55;77.50
4972;BME280;2501;51.214;6.768;2023-03-04T04:15:16;102133.91;;;4.63;77.40
4972;BME280;2501;51.214;6.768;2023-03-04T04:17:44;102128.00;;;4.49;77.76
4972;BME280;2501;51.214;6.768;2023-03-04T04:20:12;102131.41;;;4.48;78.32
4972;BME280;2501;51.214;6.768;2023-03-04T04:22:41;102127.75;;;4.44;79.09
4972;BME280;2501;51.214;6.768;2023-03-04T04:25:09;102126.94;;;4.45;79.34
4972;BME280;2501;51.214;6.768;2023-03-04T04:27:40;102126.88;;;4.44;79.32
4972;BME280;2501;51.214;6.768;2023-03-04T04:30:11;102126.31;;;4.49;79.41
4972;BME280;2501;51.214;6.768;2023-03-04T04:32:42;102124.91;;;4.40;79.61
4972;BME280;2501;51.214;6.768;2023-03-04T04:35:11;102123.22;;;4.40;79.74
4972;BME280;2501;51.214;6.768;2023-03-04T04:37:39;102126.94;;;4.45;79.80
4972;BME280;2501;51.214;6.768;2023-03-04T04:40:09;102132.72;;;4.40;79.78
4972;BME280;2501;51.214;6.768;2023-03-04T04:42:40;102130.59;;;4.49;79.75
4972;BME280;2501;51.214;6.768;2023-03-04T04:45:09;102131.09;;;4.42;79.71
4972;BME280;2501;51.214;6.768;2023-03-04T04:47:38;102125.00;;;4.41;79.44
4972;BME280;2501;51.214;6.768;2023-03-04T04:50:07;102135.22;;;4.38;79.69
4972;BME280;2501;51.214;6.768;2023-03-04T04:52:36;102138.53;;;4.36;79.83
4972;BME280;2501;51.214;6.768;2023-03-04T04:55:05;102132.47;;;4.35;79.99
4972;BME280;2501;51.214;6.768;2023-03-04T04:57:34;102130.63;;;4.33;80.20
4972;BME280;2501;51.214;6.768;2023-03-04T05:00:10;102140.50;;;4.40;80.46
4972;BME280;2501;51.214;6.768;2023-03-04T05:02:38;102136.75;;;4.35;80.90
4972;BME280;2501;51.214;6.768;2023-03-04T05:05:07;102132.97;;;4.28;80.98
4972;BME280;2501;51.214;6.768;2023-03-04T05:07:36;102137.44;;;4.31;81.15
4972;BME280;2501;51.214;6.768;2023-03-04T05:10:05;102141.94;;;4.35;81.29
4972;BME280;2501;51.214;6.768;2023-03-04T05:12:34;102138.72;;;4.39;81.03
4972;BME280;2501;51.214;6.768;2023-03-04T05:15:06;102134.16;;;4.35;81.34
4972;BME280;2501;51.214;6.768;2023-03-04T05:17:37;102135.81;;;4.33;81.26
4972;BME280;2501;51.214;6.768;2023-03-04T05:20:06;102138.25;;;4.30;81.25
4972;BME280;2501;51.214;6.768;2023-03-04T05:22:35;102137.25;;;4.28;81.48
4972;BME280;2501;51.214;6.768;2023-03-04T05:25:04;102135.13;;;4.37;81.60
4972;BME280;2501;51.214;6.768;2023-03-04T05:27:33;102134.97;;;4.34;81.63
4972;BME280;2501;51.214;6.768;2023-03-04T05:30:01;102136.75;;;4.35;81.50
4972;BME280;2501;51.214;6.768;2023-03-04T05:32:33;102138.47;;;4.34;81.33
4972;BME280;2501;51.214;6.768;2023-03-04T05:35:01;102137.50;;;4.32;80.52
4972;BME280;2501;51.214;6.768;2023-03-04T05:37:29;102138.25;;;4.30;80.14
4972;BME280;2501;51.214;6.768;2023-03-04T05:39:58;102139.22;;;4.32;79.81
4972;BME280;2501;51.214;6.768;2023-03-04T05:42:26;102143.34;;;4.28;79.19
4972;BME280;2501;51.214;6.768;2023-03-04T05:44:54;102146.19;;;4.33;78.88
4972;BME280;2501;51.214;6.768;2023-03-04T05:47:23;102141.94;;;4.35;78.69
4972;BME280;2501;51.214;6.768;2023-03-04T05:49:54;102146.50;;;4.39;78.79
4972;BME280;2501;51.214;6.768;2023-03-04T05:52:22;102144.72;;;4.38;79.19
4972;BME280;2501;51.214;6.768;2023-03-04T05:54:51;102148.03;;;4.35;79.95
4972;BME280;2501;51.214;6.768;2023-03-04T05:57:19;102139.28;;;4.33;80.70
4972;BME280;2501;51.214;6.768;2023-03-04T05:59:49;102146.34;;;4.36;81.11
4972;BME280;2501;51.214;6.768;2023-03-04T06:02:18;102152.13;;;4.30;81.52
4972;BME280;2501;51.214;6.768;2023-03-04T06:04:46;102144.31;;;4.30;82.08
4972;BME280;2501;51.214;6.768;2023-03-04T06:07:17;102143.59;;;4.33;82.36
4972;BME280;2501;51.214;6.768;2023-03-04T06:09:45;102150.34;;;4.29;82.52
4972;BME280;2501;51.214;6.768;2023-03-04T06:12:14;102143.19;;;4.25;82.41
4972;BME280;2501;51.214;6.768;2023-03-04T06:14:42;102149.66;;;4.33;82.00
4972;BME280;2501;51.214;6.768;2023-03-04T06:17:11;102158.75;;;4.25;81.80
4972;BME280;2501;51.214;6.768;2023-03-04T06:19:39;102153.00;;;4.31;82.28
4972;BME280;2501;51.214;6.768;2023-03-04T06:22:08;102162.50;;;4.30;82.01
4972;BME280;2501;51.214;6.768;2023-03-04T06:24:39;102159.09;;;4.31;81.82
4972;BME280;2501;51.214;6.768;2023-03-04T06:27:08;102164.69;;;4.23;81.73
4972;BME280;2501;51.214;6.768;2023-03-04T06:29:38;102166.63;;;4.27;81.69
4972;BME280;2501;51.214;6.768;2023-03-04T06:32:06;102165.84;;;4.28;81.88
4972;BME280;2501;51.214;6.768;2023-03-04T06:34:34;102170.13;;;4.27;81.70
4972;BME280;2501;51.214;6.768;2023-03-04T06:37:03;102171.09;;;4.29;81.86
4972;BME280;2501;51.214;6.768;2023-03-04T06:39:31;102175.25;;;4.26;81.82
4972;BME280;2501;51.214;6.768;2023-03-04T06:42:03;102172.16;;;4.33;82.09
4972;BME280;2501;51.214;6.768;2023-03-04T06:44:32;102176.38;;;4.31;81.68
4972;BME280;2501;51.214;6.768;2023-03-04T06:47:00;102181.81;;;4.35;81.63
4972;BME280;2501;51.214;6.768;2023-03-04T06:49:28;102176.88;;;4.40;81.24
4972;BME280;2501;51.214;6.768;2023-03-04T06:51:57;102178.19;;;4.48;80.87
4972;BME280;2501;51.214;6.768;2023-03-04T06:54:25;102176.22;;;4.44;80.39
4972;BME280;2501;51.214;6.768;2023-03-04T06:56:54;102183.69;;;4.38;80.42
4972;BME280;2501;51.214;6.768;2023-03-04T06:59:25;102185.28;;;4.36;80.62
4972;BME280;2501;51.214;6.768;2023-03-04T07:01:54;102183.59;;;4.36;80.57
4972;BME280;2501;51.214;6.768;2023-03-04T07:04:22;102185.38;;;4.37;80.59
4972;BME280;2501;51.214;6.768;2023-03-04T07:06:51;102180.44;;;4.42;80.71
4972;BME280;2501;51.214;6.768;2023-03-04T07:09:19;102180.59;;;4.61;80.34
4972;BME280;2501;51.214;6.768;2023-03-04T07:11:48;102182.31;;;4.44;80.13
4972;BME280;2501;51.214;6.768;2023-03-04T07:14:16;102184.81;;;4.43;80.23
4972;BME280;2501;51.214;6.768;2023-03-04T07:16:47;102190.84;;;4.42;80.23
4972;BME280;2501;51.214;6.768;2023-03-04T07:19:16;102199.53;;;4.42;80.50
4972;BME280;2501;51.214;6.768;2023-03-04T07:21:44;102193.97;;;4.36;80.84
4972;BME280;2501;51.214;6.768;2023-03-04T07:24:13;102183.84;;;4.41;81.51
4972;BME280;2501;51.214;6.768;2023-03-04T07:26:41;102190.41;;;4.34;82.07
4972;BME280;2501;51.214;6.768;2023-03-04T07:29:11;102197.47;;;4.37;82.36
4972;BME280;2501;51.214;6.768;2023-03-04T07:31:40;102198.06;;;4.47;82.36
4972;BME280;2501;51.214;6.768;2023-03-04T07:34:12;102196.59;;;4.52;82.46
4972;BME280;2501;51.214;6.768;2023-03-04T07:36:42;102202.84;;;4.72;81.80
4972;BME280;2501;51.214;6.768;2023-03-04T07:39:13;102199.69;;;4.45;82.00
4972;BME280;2501;51.214;6.768;2023-03-04T07:41:47;102198.06;;;4.47;82.41
4972;BME280;2501;51.214;6.768;2023-03-04T07:44:15;102206.09;;;4.52;82.54
4972;BME280;2501;51.214;6.768;2023-03-04T07:46:43;102211.16;;;4.49;82.95
4972;BME280;2501;51.214;6.768;2023-03-04T07:49:14;102205.59;;;4.43;83.05
4972;BME280;2501;51.214;6.768;2023-03-04T07:51:43;102213.88;;;4.36;83.96
4972;BME280;2501;51.214;6.768;2023-03-04T07:54:11;102215.84;;;4.40;84.50
4972;BME280;2501;51.214;6.768;2023-03-04T07:56:40;102206.91;;;4.51;84.96
4972;BME280;2501;51.214;6.768;2023-03-04T07:59:08;102205.53;;;4.58;84.82
4972;BME280;2501;51.214;6.768;2023-03-04T08:01:37;102210.47;;;4.53;84.90
4972;BME280;2501;51.214;6.768;2023-03-04T08:04:07;102219.75;;;4.48;85.04
4972;BME280;2501;51.214;6.768;2023-03-04T08:06:39;102216.38;;;4.34;85.76
4972;BME280;2501;51.214;6.768;2023-03-04T08:09:09;102216.91;;;4.43;86.30
4972;BME280;2501;51.214;6.768;2023-03-04T08:11:38;102216.47;;;4.52;86.20
4972;BME280;2501;51.214;6.768;2023-03-04T08:14:07;102223.16;;;4.63;85.99
4972;BME280;2501;51.214;6.768;2023-03-04T08:16:35;102217.16;;;4.64;85.66
4972;BME280;2501;51.214;6.768;2023-03-04T08:19:04;102217.38;;;4.69;85.69
4972;BME280;2501;51.214;6.768;2023-03-04T08:21:33;102211.06;;;4.64;85.80
4972;BME280;2501;51.214;6.768;2023-03-04T08:24:05;102216.91;;;4.76;86.41
4972;BME280;2501;51.214;6.768;2023-03-04T08:26:36;102219.97;;;4.69;86.81
4972;BME280;2501;51.214;6.768;2023-03-04T08:29:06;102215.38;;;4.79;87.47
4972;BME280;2501;51.214;6.768;2023-03-04T08:31:35;102217.38;;;4.69;87.72
4972;BME280;2501;51.214;6.768;2023-03-04T08:34:05;102216.41;;;4.83;88.01
4972;BME280;2501;51.214;6.768;2023-03-04T08:36:35;102218.53;;;4.74;88.45
4972;BME280;2501;51.214;6.768;2023-03-04T08:39:07;102221.94;;;4.73;88.63
4972;BME280;2501;51.214;6.768;2023-03-04T08:41:36;102216.81;;;4.90;88.39
4972;BME280;2501;51.214;6.768;2023-03-04T08:44:05;102216.94;;;5.10;87.69
4972;BME280;2501;51.214;6.768;2023-03-04T08:46:35;102223.03;;;5.44;86.71
4972;BME280;2501;51.214;6.768;2023-03-04T08:49:04;102220.75;;;5.16;86.40
4972;BME280;2501;51.214;6.768;2023-03-04T08:51:33;102215.00;;;5.40;86.41
4972;BME280;2501;51.214;6.768;2023-03-04T08:54:02;102222.06;;;5.08;86.07
4972;BME280;2501;51.214;6.768;2023-03-04T08:56:33;102216.59;;;5.20;86.18
4972;BME280;2501;51.214;6.768;2023-03-04T08:59:02;102216.91;;;5.26;85.87
4972;BME280;2501;51.214;6.768;2023-03-04T09:01:30;102214.66;;;5.50;84.74
4972;BME280;2501;51.214;6.768;2023-03-04T09:03:59;102210.38;;;5.34;83.65
4972;BME280;2501;51.214;6.768;2023-03-04T09:06:27;102213.13;;;5.37;83.13
4972;BME280;2501;51.214;6.768;2023-03-04T09:08:56;102205.94;;;5.49;82.35
4972;BME280;2501;51.214;6.768;2023-03-04T09:11:24;102201.81;;;5.71;81.51
4972;BME280;2501;51.214;6.768;2023-03-04T09:13:55;102207.88;;;5.53;80.87
4972;BME280;2501;51.214;6.768;2023-03-04T09:16:24;102204.41;;;5.53;80.89
4972;BME280;2501;51.214;6.768;2023-03-04T09:18:52;102209.13;;;5.62;80.56
4972;BME280;2501;51.214;6.768;2023-03-04T09:21:21;102224.09;;;5.48;80.97
4972;BME280;2501;51.214;6.768;2023-03-04T09:23:49;102205.94;;;5.49;82.12
4972;BME280;2501;51.214;6.768;2023-03-04T09:26:20;102215.06;;;5.41;82.70
4972;BME280;2501;51.214;6.768;2023-03-04T09:28:50;102209.94;;;5.43;83.43
4972;BME280;2501;51.214;6.768;2023-03-04T09:31:22;102208.63;;;5.51;83.30
4972;BME280;2501;51.214;6.768;2023-03-04T09:33:51;102208.16;;;5.59;83.12
4972;BME280;2501;51.214;6.768;2023-03-04T09:36:21;102204.84;;;5.80;81.97
4972;BME280;2501;51.214;6.768;2023-03-04T09:38:50;102208.88;;;5.91;81.16
4972;BME280;2501;51.214;6.768;2023-03-04T09:41:21;102207.66;;;6.20;80.97
4972;BME280;2501;51.214;6.768;2023-03-04T09:43:51;102217.09;;;5.82;80.71
4972;BME280;2501;51.214;6.768;2023-03-04T09:46:28;102211.97;;;5.66;81.81
4972;BME280;2501;51.214;6.768;2023-03-04T09:49:00;102208.25;;;5.79;83.10
4972;BME280;2501;51.214;6.768;2023-03-04T09:51:41;102211.00;;;5.64;83.01
4972;BME280;2501;51.214;6.768;2023-03-04T09:54:17;102210.69;;;5.76;83.16
4972;BME280;2501;51.214;6.768;2023-03-04T09:56:49;102208.66;;;6.23;81.96
4972;BME280;2501;51.214;6.768;2023-03-04T09:59:23;102205.16;;;6.04;81.22
4972;BME280;2501;51.214;6.768;2023-03-04T10:01:56;102206.06;;;6.04;81.61
4972;BME280;2501;51.214;6.768;2023-03-04T10:04:32;102192.50;;;5.93;81.81
4972;BME280;2501;51.214;6.768;2023-03-04T10:07:07;102202.75;;;6.08;82.20
4972;BME280;2501;51.214;6.768;2023-03-04T10:09:44;102195.25;;;5.97;81.79
4972;BME280;2501;51.214;6.768;2023-03-04T10:12:17;102207.91;;;5.89;81.88
4972;BME280;2501;51.214;6.768;2023-03-04T10:14:50;102192.06;;;6.02;82.33
4972;BME280;2501;51.214;6.768;2023-03-04T10:17:28;102188.13;;;6.29;81.65
4972;BME280;2501;51.214;6.768;2023-03-04T10:20:04;102189.84;;;6.29;81.20
4972;BME280;2501;51.214;6.768;2023-03-04T10:22:35;102189.50;;;6.21;81.89
4972;BME280;2501;51.214;6.768;2023-03-04T10:25:26;102182.84;;;6.28;81.71
4972;BME280;2501;51.214;6.768;2023-03-04T10:27:57;102183.84;;;6.12;80.92
4972;BME280;2501;51.214;6.768;2023-03-04T10:30:34;102186.50;;;6.51;79.86
4972;BME280;2501;51.214;6.768;2023-03-04T10:33:12;102177.09;;;7.14;77.62
4972;BME280;2501;51.214;6.768;2023-03-04T10:35:44;102174.94;;;6.84;76.96
4972;BME280;2501;51.214;6.768;2023-03-04T10:38:13;102168.56;;;6.78;76.98
4972;BME280;2501;51.214;6.768;2023-03-04T10:40:42;102168.09;;;6.67;76.96
4972;BME280;2501;51.214;6.768;2023-03-04T10:43:15;102167.59;;;6.76;77.03
4972;BME280;2501;51.214;6.768;2023-03-04T10:45:44;102162.06;;;6.68;77.38
4972;BME280;2501;51.214;6.768;2023-03-04T10:48:23;102169.88;;;6.29;77.71
4972;BME280;2501;51.214;6.768;2023-03-04T10:50:53;102167.88;;;6.43;78.09
4972;BME280;2501;51.214;6.768;2023-03-04T10:53:38;102161.03;;;6.64;77.64
4972;BME280;2501;51.214;6.768;2023-03-04T10:56:33;102168.31;;;6.52;78.10
4972;BME280;2501;51.214;6.768;2023-03-04T10:59:28;102160.97;;;6.63;78.23
4972;BME280;2501;51.214;6.768;2023-03-04T11:01:58;102161.72;;;6.60;78.72
4972;BME280;2501;51.214;6.768;2023-03-04T11:04:33;102167.34;;;6.50;78.87
4972;BME280;2501;51.214;6.768;2023-03-04T11:07:07;102161.09;;;6.27;78.82
4972;BME280;2501;51.214;6.768;2023-03-04T11:09:36;102165.84;;;6.36;79.46
4972;BME280;2501;51.214;6.768;2023-03-04T11:12:10;102154.41;;;6.52;78.74
4972;BME280;2501;51.214;6.768;2023-03-04T11:14:40;102161.25;;;6.50;78.62
4972;BME280;2501;51.214;6.768;2023-03-04T11:17:19;102148.69;;;6.60;78.61
4972;BME280;2501;51.214;6.768;2023-03-04T11:19:55;102148.41;;;6.74;77.84
4972;BME280;2501;51.214;6.768;2023-03-04T11:22:26;102140.94;;;7.02;76.98
4972;BME280;2501;51.214;6.768;2023-03-04T11:24:59;102150.22;;;6.95;76.38
4972;BME280;2501;51.214;6.768;2023-03-04T11:27:36;102138.25;;;7.01;76.21
4972;BME280;2501;51.214;6.768;2023-03-04T11:30:28;102138.47;;;7.26;74.61
4972;BME280;2501;51.214;6.768;2023-03-04T11:33:09;102136.00;;;7.08;74.94
4972;BME280;2501;51.214;6.768;2023-03-04T11:35:49;102131.56;;;6.86;75.88
4972;BME280;2501;51.214;6.768;2023-03-04T11:38:28;102120.63;;;7.16;75.26
4972;BME280;2501;51.214;6.768;2023-03-04T11:41:03;102119.13;;;7.21;75.18
4972;BME280;2501;51.214;6.768;2023-03-04T11:43:35;102134.38;;;6.91;76.50
4972;BME280;2501;51.214;6.768;2023-03-04T11:46:15;102125.78;;;6.93;76.77
4972;BME280;2501;51.214;6.768;2023-03-04T11:48:54;102123.03;;;7.10;76.40
4972;BME280;2501;51.214;6.768;2023-03-04T11:51:34;102118.56;;;7.07;75.76
4972;BME280;2501;51.214;6.768;2023-03-04T11:54:20;102117.53;;;7.04;76.08
4972;BME280;2501;51.214;6.768;2023-03-04T11:56:56;102109.16;;;7.33;75.75
4972;BME280;2501;51.214;6.768;2023-03-04T11:59:47;102099.47;;;7.51;74.56
4972;BME280;2501;51.214;6.768;2023-03-04T12:02:21;102100.28;;;7.50;72.84
4972;BME280;2501;51.214;6.768;2023-03-04T12:05:23;102096.50;;;7.42;72.43
4972;BME280;2501;51.214;6.768;2023-03-04T12:08:14;102094.44;;;7.56;72.11
4972;BME280;2501;51.214;6.768;2023-03-04T12:10:54;102096.00;;;7.30;73.16
4972;BME280;2501;51.214;6.768;2023-03-04T12:16:55;102091.88;;;6.93;76.10
4972;BME280;2501;51.214;6.768;2023-03-04T12:19:35;102084.19;;;6.96;76.38
4972;BME280;2501;51.214;6.768;2023-03-04T12:22:36;102075.59;;;6.99;77.46
4972;BME280;2501;51.214;6.768;2023-03-04T12:25:23;102081.50;;;7.59;75.62
4972;BME280;2501;51.214;6.768;2023-03-04T12:28:02;102071.91;;;7.58;74.74
4972;BME280;2501;51.214;6.768;2023-03-04T12:30:48;102061.78;;;7.45;74.03
4972;BME280;2501;51.214;6.768;2023-03-04T12:33:26;102060.66;;;7.38;75.00
4972;BME280;2501;51.214;6.768;2023-03-04T12:36:09;102061.59;;;7.85;75.30
4972;BME280;2501;51.214;6.768;2023-03-04T12:38:52;102050.44;;;7.89;74.76
4972;BME280;2501;51.214;6.768;2023-03-04T12:41:33;102055.56;;;7.63;74.38
4972;BME280;2501;51.214;6.768;2023-03-04T12:44:12;102053.84;;;7.64;74.71
4972;BME280;2501;51.214;6.768;2023-03-04T12:46:50;102039.16;;;7.44;75.27
4972;BME280;2501;51.214;6.768;2023-03-04T12:49:51;102040.19;;;7.26;76.27
4972;BME280;2501;51.214;6.768;2023-03-04T12:52:31;102047.66;;;7.17;76.52
4972;BME280;2501;51.214;6.768;2023-03-04T12:55:08;102044.75;;;7.32;76.21
4972;BME280;2501;51.214;6.768;2023-03-04T12:57:41;102039.13;;;7.21;76.67
4972;BME280;2501;51.214;6.768;2023-03-04T13:00:19;102035.81;;;7.25;77.68
4972;BME280;2501;51.214;6.768;2023-03-04T13:02:58;102030.03;;;7.12;77.69
4972;BME280;2501;51.214;6.768;2023-03-04T13:05:43;102027.19;;;7.06;78.57
4972;BME280;2501;51.214;6.768;2023-03-04T13:08:31;102038.28;;;7.22;78.54
4972;BME280;2501;51.214;6.768;2023-03-04T13:11:02;102032.81;;;7.16;78.70
4972;BME280;2501;51.214;6.768;2023-03-04T13:13:38;102027.72;;;7.19;78.46
4972;BME280;2501;51.214;6.768;2023-03-04T13:16:29;102027.91;;;7.24;77.73
4972;BME280;2501;51.214;6.768;2023-03-04T13:18:58;102018.13;;;7.18;78.45
4972;BME280;2501;51.214;6.768;2023-03-04T13:21:28;102022.56;;;7.21;79.18
4972;BME280;2501;51.214;6.768;2023-03-04T13:24:00;102023.50;;;7.01;79.31
4972;BME280;2501;51.214;6.768;2023-03-04T13:26:49;102021.38;;;7.35;78.20
4972;BME280;2501;51.214;6.768;2023-03-04T13:29:35;102015.63;;;7.21;78.07
4972;BME280;2501;51.214;6.768;2023-03-04T13:32:08;102018.53;;;7.07;79.41
4972;BME280;2501;51.214;6.768;2023-03-04T13:34:42;102022.78;;;7.05;79.87
4972;BME280;2501;51.214;6.768;2023-03-04T13:37:32;102024.72;;;6.88;81.35
4972;BME280;2501;51.214;6.768;2023-03-04T13:43:24;102008.38;;;7.14;83.52
4972;BME280;2501;51.214;6.768;2023-03-04T13:45:56;102011.47;;;7.04;84.31
4972;BME280;2501;51.214;6.768;2023-03-04T13:48:31;102010.38;;;6.99;84.04
4972;BME280;2501;51.214;6.768;2023-03-04T13:51:01;102002.22;;;7.12;84.15
4972;BME280;2501;51.214;6.768;2023-03-04T13:53:44;102000.50;;;7.13;83.77